createdAt,value
2022-12-22T00:00:02.617Z,23.6
2022-12-22T00:05:20.837Z,23.6
2022-12-22T00:10:39.634Z,23.6
2022-12-22T00:15:58.379Z,23.6
2022-12-22T00:21:16.602Z,23.6
2022-12-22T00:26:35.092Z,23.5
2022-12-22T00:31:53.260Z,23.5
2022-12-22T00:37:11.763Z,23.5
2022-12-22T00:42:30.288Z,23.5
2022-12-22T00:47:48.727Z,23.6
2022-12-22T00:53:07.481Z,23.6
2022-12-22T00:58:26.022Z,23.6
2022-12-22T01:03:45.058Z,23.6
2022-12-22T01:09:03.488Z,23.6
2022-12-22T01:14:22.016Z,23.6
2022-12-22T01:19:40.362Z,23.6
2022-12-22T01:24:58.871Z,23.6
2022-12-22T01:30:17.140Z,23.6
2022-12-22T01:35:35.638Z,23.6
2022-12-22T01:40:54.110Z,23.6
2022-12-22T01:46:13.108Z,23.6
2022-12-22T01:51:16.089Z,23.7
2022-12-22T01:56:34.600Z,23.6
2022-12-22T02:01:53.591Z,23.7
2022-12-22T02:07:12.154Z,23.7
2022-12-22T02:12:30.843Z,23.7
2022-12-22T02:17:49.386Z,23.7
2022-12-22T02:23:08.117Z,23.7
2022-12-22T02:28:26.611Z,23.7
2022-12-22T02:33:45.821Z,23.7
2022-12-22T02:39:04.292Z,23.7
2022-12-22T02:44:22.218Z,23.7
2022-12-22T02:49:42.214Z,23.7
2022-12-22T02:55:00.692Z,23.7
2022-12-22T03:00:19.386Z,23.7
2022-12-22T03:05:38.575Z,23.7
2022-12-22T03:10:56.523Z,23.7
2022-12-22T03:16:15.347Z,23.7
2022-12-22T03:21:33.918Z,23.7
2022-12-22T03:26:51.872Z,23.7
2022-12-22T03:32:10.058Z,23.7
2022-12-22T03:37:28.324Z,23.7
2022-12-22T03:42:46.850Z,23.7
2022-12-22T03:48:05.050Z,23.7
2022-12-22T03:53:23.312Z,23.7
2022-12-22T03:58:41.514Z,23.7
2022-12-22T04:03:59.455Z,23.7
2022-12-22T04:09:18.002Z,23.7
2022-12-22T04:14:36.328Z,23.7
2022-12-22T04:19:54.821Z,23.7
2022-12-22T04:25:13.609Z,23.7
2022-12-22T04:30:32.090Z,23.7
2022-12-22T04:35:50.854Z,23.7
2022-12-22T04:41:09.425Z,23.8
2022-12-22T04:46:27.912Z,23.8
2022-12-22T04:51:46.346Z,23.7
2022-12-22T04:57:04.321Z,23.7
2022-12-22T05:02:23.141Z,23.7
2022-12-22T05:07:41.772Z,23.7
2022-12-22T05:13:00.603Z,23.7
2022-12-22T05:18:19.070Z,23.8
2022-12-22T05:23:37.559Z,23.8
2022-12-22T05:28:56.098Z,23.8
2022-12-22T05:34:14.290Z,23.8
2022-12-22T05:39:32.514Z,23.8
2022-12-22T05:44:50.760Z,23.7
2022-12-22T05:50:08.942Z,23.7
2022-12-22T05:55:27.406Z,23.7
2022-12-22T06:00:45.891Z,23.7
2022-12-22T06:06:04.089Z,23.7
2022-12-22T06:11:22.298Z,23.7
2022-12-22T06:16:40.461Z,23.6
2022-12-22T06:21:58.978Z,23.7
2022-12-22T06:27:17.171Z,23.7
2022-12-22T06:32:35.751Z,23.7
2022-12-22T06:37:54.266Z,23.7
2022-12-22T06:43:12.474Z,23.7
2022-12-22T06:48:31.282Z,23.7
2022-12-22T06:53:49.497Z,23.7
2022-12-22T06:59:07.698Z,23.8
2022-12-22T07:04:25.959Z,23.8
2022-12-22T07:09:44.164Z,23.8
2022-12-22T07:15:02.964Z,23.9
2022-12-22T07:20:21.793Z,23.9
2022-12-22T07:25:40.277Z,24
2022-12-22T07:30:58.935Z,24.1
2022-12-22T07:36:01.513Z,24.1
2022-12-22T07:41:19.722Z,23.9
2022-12-22T07:46:38.472Z,23.7
2022-12-22T07:51:57.627Z,23.4
2022-12-22T07:57:16.193Z,23.4
2022-12-22T08:02:39.723Z,23.2
2022-12-22T08:07:58.201Z,23.2
2022-12-22T08:13:16.546Z,23.2
2022-12-22T08:18:34.908Z,23.5
2022-12-22T08:23:53.407Z,23.7
2022-12-22T08:29:11.593Z,23.8
2022-12-22T08:34:29.796Z,23.9
2022-12-22T08:39:48.426Z,24
2022-12-22T08:44:53.480Z,24.1
2022-12-22T08:50:12.076Z,24.2
2022-12-22T08:55:30.347Z,24.3
2022-12-22T09:00:49.027Z,24.4
2022-12-22T09:06:07.298Z,24.5
2022-12-22T09:11:25.846Z,24.5
2022-12-22T09:16:44.285Z,24.6
2022-12-22T09:22:03.140Z,24.6
2022-12-22T09:27:21.648Z,24.7
2022-12-22T09:32:40.121Z,24.7
2022-12-22T09:37:43.024Z,24.7
2022-12-22T09:43:01.850Z,24.8
2022-12-22T09:48:19.820Z,24.8
2022-12-22T09:53:38.587Z,24.9
2022-12-22T09:58:56.924Z,24.9
2022-12-22T10:04:01.690Z,24.9
2022-12-22T10:09:50.959Z,24.9
2022-12-22T10:15:10.162Z,24.9
2022-12-22T10:20:29.459Z,24.9
2022-12-22T10:26:33.374Z,24.9
2022-12-22T10:31:51.843Z,24.9
2022-12-22T10:37:10.416Z,25
2022-12-22T10:42:28.625Z,24.9
2022-12-22T10:47:47.155Z,24.9
2022-12-22T10:53:05.659Z,24.9
2022-12-22T10:58:24.141Z,24.9
2022-12-22T11:03:42.560Z,24.8
2022-12-22T11:09:34.088Z,24.9
2022-12-22T11:14:53.503Z,24.8
2022-12-22T11:20:11.496Z,24.8
2022-12-22T11:25:29.712Z,24.8
2022-12-22T11:30:48.469Z,24.8
2022-12-22T11:36:07.476Z,24.8
2022-12-22T11:41:25.664Z,24.7
2022-12-22T11:46:43.696Z,24.7
2022-12-22T11:52:02.465Z,24.7
2022-12-22T11:57:21.055Z,24.7
2022-12-22T12:02:39.274Z,24.7
2022-12-22T12:07:57.828Z,24.6
2022-12-22T12:13:30.224Z,24.6
2022-12-22T12:18:55.346Z,24.6
2022-12-22T12:24:13.567Z,24.6
2022-12-22T12:29:31.767Z,24.6
2022-12-22T12:34:49.970Z,24.6
2022-12-22T12:40:08.318Z,24.6
2022-12-22T12:45:26.239Z,24.6
2022-12-22T12:50:44.992Z,24.5
2022-12-22T12:56:03.811Z,24.5
2022-12-22T13:01:22.805Z,24.5
2022-12-22T13:06:50.108Z,24.4
2022-12-22T13:12:16.205Z,24.4
2022-12-22T13:17:42.591Z,24.4
2022-12-22T13:23:01.310Z,24.4
2022-12-22T13:28:19.391Z,24.4
2022-12-22T13:33:37.322Z,24.3
2022-12-22T13:38:55.517Z,24.3
2022-12-22T13:44:14.324Z,24.3
2022-12-22T13:50:09.234Z,24.3
2022-12-22T13:55:28.419Z,24.2
2022-12-22T14:00:47.211Z,24.2
2022-12-22T14:06:05.595Z,24.2
2022-12-22T14:11:23.804Z,24.2
2022-12-22T14:16:42.181Z,24.1
2022-12-22T14:22:00.583Z,24.1
2022-12-22T14:27:19.084Z,24.1
2022-12-22T14:32:37.052Z,24
2022-12-22T14:37:55.274Z,24
2022-12-22T14:43:13.479Z,24
2022-12-22T14:48:31.866Z,24
2022-12-22T14:53:50.358Z,23.9
2022-12-22T14:59:08.543Z,23.8
2022-12-22T15:04:27.087Z,23.9
2022-12-22T15:10:16.199Z,23.9
2022-12-22T15:15:35.787Z,23.9
2022-12-22T15:20:54.261Z,23.9
2022-12-22T15:26:12.604Z,23.9
2022-12-22T15:31:31.017Z,24
2022-12-22T15:36:49.461Z,24
2022-12-22T15:42:08.071Z,24
2022-12-22T15:47:26.568Z,24
2022-12-22T15:52:45.162Z,24
2022-12-22T15:58:03.388Z,24
2022-12-22T16:03:22.595Z,23.9
2022-12-22T16:08:41.801Z,23.9
2022-12-22T16:13:44.982Z,23.9
2022-12-22T16:19:03.559Z,24
2022-12-22T16:24:27.888Z,24
2022-12-22T16:29:46.488Z,23.9
2022-12-22T16:35:04.986Z,24
2022-12-22T16:40:23.791Z,23.9
2022-12-22T16:45:26.366Z,23.9
2022-12-22T16:50:44.867Z,23.9
2022-12-22T16:56:03.358Z,23.9
2022-12-22T17:01:21.938Z,23.9
2022-12-22T17:06:40.344Z,23.9
2022-12-22T17:11:58.873Z,23.9
2022-12-22T17:17:03.092Z,23.9
2022-12-22T17:22:21.560Z,23.9
2022-12-22T17:27:40.205Z,23.9
2022-12-22T17:32:58.687Z,23.9
2022-12-22T17:38:17.177Z,23.9
2022-12-22T17:43:35.447Z,23.9
2022-12-22T17:48:53.674Z,23.9
2022-12-22T17:54:11.879Z,23.9
2022-12-22T17:59:30.126Z,23.9
2022-12-22T18:04:48.325Z,23.9
2022-12-22T18:10:06.562Z,23.9
2022-12-22T18:15:25.060Z,23.9
2022-12-22T18:20:43.391Z,23.9
2022-12-22T18:26:02.147Z,23.9
2022-12-22T18:31:21.176Z,23.9
2022-12-22T18:36:39.808Z,23.9
2022-12-22T18:41:58.011Z,23.9
2022-12-22T18:47:16.761Z,23.8
2022-12-22T18:52:34.763Z,23.9
2022-12-22T18:57:53.544Z,23.9
2022-12-22T19:03:12.707Z,23.8
2022-12-22T19:08:31.625Z,23.8
2022-12-22T19:13:50.238Z,23.8
2022-12-22T19:19:08.748Z,23.8
2022-12-22T19:24:11.872Z,23.8
2022-12-22T19:29:30.359Z,23.8
2022-12-22T19:34:48.886Z,23.8
2022-12-22T19:40:07.396Z,23.8
2022-12-22T19:45:26.165Z,23.8
2022-12-22T19:50:44.663Z,23.8
2022-12-22T19:56:03.436Z,23.7
2022-12-22T20:01:22.093Z,23.7
2022-12-22T20:06:40.584Z,23.7
2022-12-22T20:11:59.256Z,23.7
2022-12-22T20:17:17.455Z,23.7
2022-12-22T20:22:36.154Z,23.7
2022-12-22T20:27:54.657Z,23.7
2022-12-22T20:33:12.884Z,23.7
2022-12-22T20:38:15.928Z,23.7
2022-12-22T20:43:33.963Z,23.7
2022-12-22T20:48:36.554Z,23.7
2022-12-22T20:53:54.840Z,23.7
2022-12-22T20:59:13.016Z,23.7
2022-12-22T21:04:31.233Z,23.7
2022-12-22T21:09:49.875Z,23.7
2022-12-22T21:15:08.372Z,23.7
2022-12-22T21:20:27.116Z,23.7
2022-12-22T21:25:47.074Z,23.7
2022-12-22T21:31:05.137Z,23.7
2022-12-22T21:36:23.788Z,23.7
2022-12-22T21:41:42.587Z,23.7
2022-12-22T21:47:00.779Z,23.7
2022-12-22T21:52:19.398Z,23.7
2022-12-22T21:57:37.919Z,23.7
2022-12-22T22:02:56.168Z,23.7
2022-12-22T22:08:15.016Z,23.7
2022-12-22T22:13:33.538Z,23.7
2022-12-22T22:18:52.041Z,23.7
2022-12-22T22:24:10.251Z,23.7
2022-12-22T22:29:29.086Z,23.7
2022-12-22T22:34:47.031Z,23.7
2022-12-22T22:40:04.921Z,23.7
2022-12-22T22:45:24.438Z,23.7
2022-12-22T22:50:42.738Z,23.6
2022-12-22T22:56:00.961Z,23.7
2022-12-22T23:01:18.973Z,23.6
2022-12-22T23:06:37.457Z,23.6
2022-12-22T23:11:55.655Z,23.6
2022-12-22T23:17:13.890Z,23.6
2022-12-22T23:22:32.402Z,23.6
2022-12-22T23:27:50.879Z,23.6
2022-12-22T23:33:08.899Z,23.6
2022-12-22T23:38:27.111Z,23.6
2022-12-22T23:43:45.579Z,23.6
2022-12-22T23:49:03.831Z,23.6
2022-12-22T23:54:22.344Z,23.6
2022-12-22T23:59:40.845Z,23.6
